sensor_id;sensor_type;location;lat;lon;timestamp;temperature;humidity
4596;DHT22;2310;49.978;8.742;2024-01-16T00:03:25;2.50;99.90
4596;DHT22;2310;49.978;8.742;2024-01-16T00:07:27;2.60;99.90
4596;DHT22;2310;49.978;8.742;2024-01-16T00:11:28;2.60;99.90
4596;DHT22;2310;49.978;8.742;2024-01-16T00:15:29;2.50;99.90
4596;DHT22;2310;49.978;8.742;2024-01-16T00:19:30;2.50;99.90
4596;DHT22;2310;49.978;8.742;2024-01-16T00:23:32;2.40;99.90
4596;DHT22;2310;49.978;8.742;2024-01-16T00:27:34;2.40;99.90
4596;DHT22;2310;49.978;8.742;2024-01-16T00:31:35;2.40;99.90
4596;DHT22;2310;49.978;8.742;2024-01-16T00:35:36;2.30;99.90
4596;DHT22;2310;49.978;8.742;2024-01-16T00:39:38;2.40;99.90
4596;DHT22;2310;49.978;8.742;2024-01-16T00:43:41;2.40;99.90
4596;DHT22;2310;49.978;8.742;2024-01-16T00:47:43;2.60;99.90
4596;DHT22;2310;49.978;8.742;2024-01-16T00:51:44;2.60;99.90
4596;DHT22;2310;49.978;8.742;2024-01-16T00:55:46;2.40;99.90
4596;DHT22;2310;49.978;8.742;2024-01-16T00:59:47;2.50;99.90
4596;DHT22;2310;49.978;8.742;2024-01-16T01:03:48;2.50;99.90
4596;DHT22;2310;49.978;8.742;2024-01-16T01:07:50;2.40;99.90
4596;DHT22;2310;49.978;8.742;2024-01-16T01:11:51;2.40;99.90
4596;DHT22;2310;49.978;8.742;2024-01-16T01:15:53;2.50;99.90
4596;DHT22;2310;49.978;8.742;2024-01-16T01:19:54;2.30;99.90
4596;DHT22;2310;49.978;8.742;2024-01-16T01:23:56;2.10;99.90
4596;DHT22;2310;49.978;8.742;2024-01-16T01:27:57;2.20;99.90
4596;DHT22;2310;49.978;8.742;2024-01-16T01:31:58;2.30;99.90
4596;DHT22;2310;49.978;8.742;2024-01-16T01:36:00;2.20;99.90
4596;DHT22;2310;49.978;8.742;2024-01-16T01:40:01;2.10;99.90
4596;DHT22;2310;49.978;8.742;2024-01-16T01:44:05;2.20;99.90
4596;DHT22;2310;49.978;8.742;2024-01-16T01:48:06;2.10;99.90
4596;DHT22;2310;49.978;8.742;2024-01-16T01:52:08;2.00;99.90
4596;DHT22;2310;49.978;8.742;2024-01-16T01:56:14;2.00;99.90
4596;DHT22;2310;49.978;8.742;2024-01-16T02:00:15;2.00;99.90
4596;DHT22;2310;49.978;8.742;2024-01-16T02:04:19;1.90;99.90
4596;DHT22;2310;49.978;8.742;2024-01-16T02:08:22;1.80;99.90
4596;DHT22;2310;49.978;8.742;2024-01-16T02:12:23;1.80;99.90
4596;DHT22;2310;49.978;8.742;2024-01-16T02:16:26;1.90;99.90
4596;DHT22;2310;49.978;8.742;2024-01-16T02:20:28;1.90;99.90
4596;DHT22;2310;49.978;8.742;2024-01-16T02:24:29;1.90;99.90
4596;DHT22;2310;49.978;8.742;2024-01-16T02:28:30;1.90;99.90
4596;DHT22;2310;49.978;8.742;2024-01-16T02:32:32;1.80;99.90
4596;DHT22;2310;49.978;8.742;2024-01-16T02:36:34;1.90;99.90
4596;DHT22;2310;49.978;8.742;2024-01-16T02:40:35;1.90;99.90
4596;DHT22;2310;49.978;8.742;2024-01-16T02:44:36;1.80;99.90
4596;DHT22;2310;49.978;8.742;2024-01-16T02:48:38;1.90;99.90
4596;DHT22;2310;49.978;8.742;2024-01-16T02:52:40;2.00;99.90
4596;DHT22;2310;49.978;8.742;2024-01-16T02:56:41;1.70;99.90
4596;DHT22;2310;49.978;8.742;2024-01-16T03:00:42;1.80;99.90
4596;DHT22;2310;49.978;8.742;2024-01-16T03:04:44;1.90;99.90
4596;DHT22;2310;49.978;8.742;2024-01-16T03:08:45;2.00;99.90
4596;DHT22;2310;49.978;8.742;2024-01-16T03:12:46;1.90;99.90
4596;DHT22;2310;49.978;8.742;2024-01-16T03:16:48;1.80;99.90
4596;DHT22;2310;49.978;8.742;2024-01-16T03:20:49;2.00;99.90
4596;DHT22;2310;49.978;8.742;2024-01-16T03:24:51;2.10;99.90
4596;DHT22;2310;49.978;8.742;2024-01-16T03:28:52;2.10;99.90
4596;DHT22;2310;49.978;8.742;2024-01-16T03:32:53;2.00;99.90
4596;DHT22;2310;49.978;8.742;2024-01-16T03:36:55;2.10;99.90
4596;DHT22;2310;49.978;8.742;2024-01-16T03:40:56;2.00;99.90
4596;DHT22;2310;49.978;8.742;2024-01-16T03:44:57;1.90;99.90
4596;DHT22;2310;49.978;8.742;2024-01-16T03:48:59;1.80;99.90
4596;DHT22;2310;49.978;8.742;2024-01-16T03:53:01;1.90;99.90
4596;DHT22;2310;49.978;8.742;2024-01-16T03:57:03;2.00;99.90
4596;DHT22;2310;49.978;8.742;2024-01-16T04:01:04;2.10;99.90
4596;DHT22;2310;49.978;8.742;2024-01-16T04:05:06;2.00;99.90
4596;DHT22;2310;49.978;8.742;2024-01-16T04:09:08;2.00;99.90
4596;DHT22;2310;49.978;8.742;2024-01-16T04:13:10;1.70;99.90
4596;DHT22;2310;49.978;8.742;2024-01-16T04:17:12;1.90;99.90
4596;DHT22;2310;49.978;8.742;2024-01-16T04:21:13;1.90;99.90
4596;DHT22;2310;49.978;8.742;2024-01-16T04:25:16;1.90;99.90
4596;DHT22;2310;49.978;8.742;2024-01-16T04:29:17;1.80;99.90
4596;DHT22;2310;49.978;8.742;2024-01-16T04:33:19;2.00;99.90
4596;DHT22;2310;49.978;8.742;2024-01-16T04:37:20;1.90;99.90
4596;DHT22;2310;49.978;8.742;2024-01-16T04:41:22;1.90;99.90
4596;DHT22;2310;49.978;8.742;2024-01-16T04:45:23;1.80;99.90
4596;DHT22;2310;49.978;8.742;2024-01-16T04:49:25;1.90;99.90
4596;DHT22;2310;49.978;8.742;2024-01-16T04:53:27;1.80;99.90
4596;DHT22;2310;49.978;8.742;2024-01-16T04:57:28;1.90;99.90
4596;DHT22;2310;49.978;8.742;2024-01-16T05:01:29;1.70;99.90
4596;DHT22;2310;49.978;8.742;2024-01-16T05:05:31;1.70;99.90
4596;DHT22;2310;49.978;8.742;2024-01-16T05:09:32;1.60;99.90
4596;DHT22;2310;49.978;8.742;2024-01-16T05:13:34;1.70;99.90
4596;DHT22;2310;49.978;8.742;2024-01-16T05:17:35;1.50;99.90
4596;DHT22;2310;49.978;8.742;2024-01-16T05:21:37;1.80;99.90
4596;DHT22;2310;49.978;8.742;2024-01-16T05:25:38;1.90;99.90
4596;DHT22;2310;49.978;8.742;2024-01-16T05:29:41;1.80;99.90
4596;DHT22;2310;49.978;8.742;2024-01-16T05:33:44;1.80;99.90
4596;DHT22;2310;49.978;8.742;2024-01-16T05:37:45;1.80;99.90
4596;DHT22;2310;49.978;8.742;2024-01-16T05:41:47;1.80;99.90
4596;DHT22;2310;49.978;8.742;2024-01-16T05:45:48;1.90;99.90
4596;DHT22;2310;49.978;8.742;2024-01-16T05:49:52;1.80;99.90
4596;DHT22;2310;49.978;8.742;2024-01-16T05:53:54;1.90;99.90
4596;DHT22;2310;49.978;8.742;2024-01-16T05:57:56;1.90;99.90
4596;DHT22;2310;49.978;8.742;2024-01-16T06:01:57;2.00;99.90
4596;DHT22;2310;49.978;8.742;2024-01-16T06:05:59;2.00;99.90
4596;DHT22;2310;49.978;8.742;2024-01-16T06:10:00;1.90;99.90
4596;DHT22;2310;49.978;8.742;2024-01-16T06:14:02;1.80;99.90
4596;DHT22;2310;49.978;8.742;2024-01-16T06:18:03;1.80;99.90
4596;DHT22;2310;49.978;8.742;2024-01-16T06:22:05;1.90;99.90
4596;DHT22;2310;49.978;8.742;2024-01-16T06:26:07;1.80;99.90
4596;DHT22;2310;49.978;8.742;2024-01-16T06:30:10;1.90;99.90
4596;DHT22;2310;49.978;8.742;2024-01-16T06:34:12;1.90;99.90
4596;DHT22;2310;49.978;8.742;2024-01-16T06:38:13;2.00;99.90
4596;DHT22;2310;49.978;8.742;2024-01-16T06:42:14;1.60;99.90
4596;DHT22;2310;49.978;8.742;2024-01-16T06:46:16;1.60;99.90
4596;DHT22;2310;49.978;8.742;2024-01-16T06:50:17;1.80;99.90
4596;DHT22;2310;49.978;8.742;2024-01-16T06:54:18;1.80;99.90
4596;DHT22;2310;49.978;8.742;2024-01-16T06:58:21;1.80;99.90
4596;DHT22;2310;49.978;8.742;2024-01-16T07:02:22;1.60;99.90
4596;DHT22;2310;49.978;8.742;2024-01-16T07:06:24;1.50;99.90
4596;DHT22;2310;49.978;8.742;2024-01-16T07:10:25;1.40;99.90
4596;DHT22;2310;49.978;8.742;2024-01-16T07:14:26;1.60;99.90
4596;DHT22;2310;49.978;8.742;2024-01-16T07:18:28;1.60;99.90
4596;DHT22;2310;49.978;8.742;2024-01-16T07:22:30;1.40;99.90
4596;DHT22;2310;49.978;8.742;2024-01-16T07:26:31;1.50;99.90
4596;DHT22;2310;49.978;8.742;2024-01-16T07:30:32;1.60;99.90
4596;DHT22;2310;49.978;8.742;2024-01-16T07:34:34;1.50;99.90
4596;DHT22;2310;49.978;8.742;2024-01-16T07:38:35;1.60;99.90
4596;DHT22;2310;49.978;8.742;2024-01-16T07:42:37;1.80;99.90
4596;DHT22;2310;49.978;8.742;2024-01-16T07:46:38;1.70;99.90
4596;DHT22;2310;49.978;8.742;2024-01-16T07:50:40;1.80;99.90
4596;DHT22;2310;49.978;8.742;2024-01-16T07:54:42;1.70;99.90
4596;DHT22;2310;49.978;8.742;2024-01-16T07:58:44;1.70;99.90
4596;DHT22;2310;49.978;8.742;2024-01-16T08:02:45;1.60;99.90
4596;DHT22;2310;49.978;8.742;2024-01-16T08:06:46;1.80;99.90
4596;DHT22;2310;49.978;8.742;2024-01-16T08:10:48;1.90;99.90
4596;DHT22;2310;49.978;8.742;2024-01-16T08:14:50;2.20;99.90
4596;DHT22;2310;49.978;8.742;2024-01-16T08:18:51;2.10;99.90
4596;DHT22;2310;49.978;8.742;2024-01-16T08:22:53;2.20;99.90
4596;DHT22;2310;49.978;8.742;2024-01-16T08:26:55;2.40;99.90
4596;DHT22;2310;49.978;8.742;2024-01-16T08:30:58;2.70;99.90
4596;DHT22;2310;49.978;8.742;2024-01-16T08:34:59;2.70;99.90
4596;DHT22;2310;49.978;8.742;2024-01-16T08:39:01;2.50;99.90
4596;DHT22;2310;49.978;8.742;2024-01-16T08:43:02;2.60;99.90
4596;DHT22;2310;49.978;8.742;2024-01-16T08:47:05;2.60;99.90
4596;DHT22;2310;49.978;8.742;2024-01-16T08:51:08;2.80;99.90
4596;DHT22;2310;49.978;8.742;2024-01-16T08:55:11;2.70;99.90
4596;DHT22;2310;49.978;8.742;2024-01-16T08:59:12;2.70;99.90
4596;DHT22;2310;49.978;8.742;2024-01-16T09:03:14;2.80;99.90
4596;DHT22;2310;49.978;8.742;2024-01-16T09:07:16;3.00;99.90
4596;DHT22;2310;49.978;8.742;2024-01-16T09:11:18;2.80;99.90
4596;DHT22;2310;49.978;8.742;2024-01-16T09:15:19;2.80;99.90
4596;DHT22;2310;49.978;8.742;2024-01-16T09:19:21;2.90;99.90
4596;DHT22;2310;49.978;8.742;2024-01-16T09:23:22;2.80;99.90
4596;DHT22;2310;49.978;8.742;2024-01-16T09:27:24;2.80;99.90
4596;DHT22;2310;49.978;8.742;2024-01-16T09:31:26;2.70;99.90
4596;DHT22;2310;49.978;8.742;2024-01-16T09:35:27;2.90;99.90
4596;DHT22;2310;49.978;8.742;2024-01-16T09:39:28;2.70;99.90
4596;DHT22;2310;49.978;8.742;2024-01-16T09:43:33;2.90;99.90
4596;DHT22;2310;49.978;8.742;2024-01-16T09:47:36;2.90;99.90
4596;DHT22;2310;49.978;8.742;2024-01-16T09:51:38;3.00;99.90
4596;DHT22;2310;49.978;8.742;2024-01-16T09:55:40;3.10;99.90
4596;DHT22;2310;49.978;8.742;2024-01-16T09:59:41;3.20;99.90
4596;DHT22;2310;49.978;8.742;2024-01-16T10:03:45;3.30;99.90
4596;DHT22;2310;49.978;8.742;2024-01-16T10:07:46;3.30;99.90
4596;DHT22;2310;49.978;8.742;2024-01-16T10:11:50;3.60;99.90
4596;DHT22;2310;49.978;8.742;2024-01-16T10:15:53;3.60;99.90
4596;DHT22;2310;49.978;8.742;2024-01-16T10:19:56;4.00;99.90
4596;DHT22;2310;49.978;8.742;2024-01-16T10:24:11;4.20;99.90
4596;DHT22;2310;49.978;8.742;2024-01-16T10:28:15;4.10;99.90
4596;DHT22;2310;49.978;8.742;2024-01-16T10:32:45;4.00;99.90
4596;DHT22;2310;49.978;8.742;2024-01-16T10:36:33;4.20;99.90
4596;DHT22;2310;49.978;8.742;2024-01-16T10:40:35;4.20;99.90
4596;DHT22;2310;49.978;8.742;2024-01-16T10:44:36;4.20;99.90
4596;DHT22;2310;49.978;8.742;2024-01-16T10:48:41;4.30;99.90
4596;DHT22;2310;49.978;8.742;2024-01-16T10:52:49;4.30;99.90
4596;DHT22;2310;49.978;8.742;2024-01-16T10:56:49;4.30;99.90
4596;DHT22;2310;49.978;8.742;2024-01-16T11:00:52;4.40;99.90
4596;DHT22;2310;49.978;8.742;2024-01-16T11:04:55;4.30;99.90
4596;DHT22;2310;49.978;8.742;2024-01-16T11:08:58;4.30;99.90
4596;DHT22;2310;49.978;8.742;2024-01-16T11:13:02;4.30;99.90
4596;DHT22;2310;49.978;8.742;2024-01-16T11:17:07;4.30;99.90
4596;DHT22;2310;49.978;8.742;2024-01-16T11:21:12;4.40;99.90
4596;DHT22;2310;49.978;8.742;2024-01-16T11:25:17;4.50;99.90
4596;DHT22;2310;49.978;8.742;2024-01-16T11:37:41;5.10;99.90
4596;DHT22;2310;49.978;8.742;2024-01-16T11:41:48;5.40;98.70
4596;DHT22;2310;49.978;8.742;2024-01-16T11:45:50;6.00;97.20
4596;DHT22;2310;49.978;8.742;2024-01-16T11:50:13;6.00;94.10
4596;DHT22;2310;49.978;8.742;2024-01-16T11:54:16;6.30;93.40
4596;DHT22;2310;49.978;8.742;2024-01-16T12:02:53;6.70;89.70
4596;DHT22;2310;49.978;8.742;2024-01-16T12:06:58;6.80;81.00
4596;DHT22;2310;49.978;8.742;2024-01-16T12:11:00;6.90;81.60
4596;DHT22;2310;49.978;8.742;2024-01-16T12:15:02;6.80;82.00
4596;DHT22;2310;49.978;8.742;2024-01-16T12:19:06;7.20;76.00
4596;DHT22;2310;49.978;8.742;2024-01-16T12:23:09;6.80;77.00
4596;DHT22;2310;49.978;8.742;2024-01-16T12:27:11;6.80;71.90
4596;DHT22;2310;49.978;8.742;2024-01-16T12:31:18;6.80;70.20
4596;DHT22;2310;49.978;8.742;2024-01-16T12:35:20;6.60;74.20
4596;DHT22;2310;49.978;8.742;2024-01-16T12:39:22;6.60;76.90
4596;DHT22;2310;49.978;8.742;2024-01-16T12:43:24;6.40;79.00
4596;DHT22;2310;49.978;8.742;2024-01-16T12:47:25;6.30;78.90
4596;DHT22;2310;49.978;8.742;2024-01-16T12:51:27;5.80;80.00
4596;DHT22;2310;49.978;8.742;2024-01-16T12:55:28;5.70;80.70
4596;DHT22;2310;49.978;8.742;2024-01-16T12:59:30;5.90;80.30
4596;DHT22;2310;49.978;8.742;2024-01-16T13:03:32;5.60;79.40
4596;DHT22;2310;49.978;8.742;2024-01-16T13:07:33;5.60;81.20
4596;DHT22;2310;49.978;8.742;2024-01-16T13:11:53;5.70;84.10
4596;DHT22;2310;49.978;8.742;2024-01-16T13:15:53;5.90;84.60
4596;DHT22;2310;49.978;8.742;2024-01-16T13:19:54;6.00;90.30
4596;DHT22;2310;49.978;8.742;2024-01-16T13:23:55;6.10;88.60
4596;DHT22;2310;49.978;8.742;2024-01-16T13:27:57;6.30;82.60
4596;DHT22;2310;49.978;8.742;2024-01-16T13:31:59;6.40;82.50
4596;DHT22;2310;49.978;8.742;2024-01-16T13:36:01;6.40;84.10
4596;DHT22;2310;49.978;8.742;2024-01-16T13:40:05;5.70;89.50
4596;DHT22;2310;49.978;8.742;2024-01-16T13:44:11;6.30;81.40
4596;DHT22;2310;49.978;8.742;2024-01-16T13:48:12;6.30;77.90
4596;DHT22;2310;49.978;8.742;2024-01-16T13:52:14;6.40;80.50
4596;DHT22;2310;49.978;8.742;2024-01-16T13:56:15;6.70;72.90
4596;DHT22;2310;49.978;8.742;2024-01-16T14:00:19;6.40;71.70
4596;DHT22;2310;49.978;8.742;2024-01-16T14:04:21;5.90;72.70
4596;DHT22;2310;49.978;8.742;2024-01-16T14:08:22;5.60;77.70
4596;DHT22;2310;49.978;8.742;2024-01-16T14:12:23;5.50;80.00
4596;DHT22;2310;49.978;8.742;2024-01-16T14:16:28;5.40;82.20
4596;DHT22;2310;49.978;8.742;2024-01-16T14:20:31;5.30;81.10
4596;DHT22;2310;49.978;8.742;2024-01-16T14:24:33;5.30;84.20
4596;DHT22;2310;49.978;8.742;2024-01-16T14:28:35;5.30;82.80
4596;DHT22;2310;49.978;8.742;2024-01-16T14:32:39;5.50;82.70
4596;DHT22;2310;49.978;8.742;2024-01-16T14:36:41;5.10;84.50
4596;DHT22;2310;49.978;8.742;2024-01-16T14:40:43;5.00;86.70
4596;DHT22;2310;49.978;8.742;2024-01-16T14:44:45;5.10;87.20
4596;DHT22;2310;49.978;8.742;2024-01-16T14:48:46;5.10;88.10
4596;DHT22;2310;49.978;8.742;2024-01-16T14:52:49;5.10;90.10
4596;DHT22;2310;49.978;8.742;2024-01-16T14:56:52;5.20;90.10
4596;DHT22;2310;49.978;8.742;2024-01-16T15:00:54;5.30;90.60
4596;DHT22;2310;49.978;8.742;2024-01-16T15:04:56;5.20;86.10
4596;DHT22;2310;49.978;8.742;2024-01-16T15:08:58;5.20;90.80
4596;DHT22;2310;49.978;8.742;2024-01-16T15:12:59;5.10;89.50
4596;DHT22;2310;49.978;8.742;2024-01-16T15:17:02;4.90;87.70
4596;DHT22;2310;49.978;8.742;2024-01-16T15:21:03;4.70;91.80
4596;DHT22;2310;49.978;8.742;2024-01-16T15:25:06;4.60;94.70
4596;DHT22;2310;49.978;8.742;2024-01-16T15:29:08;4.70;92.90
4596;DHT22;2310;49.978;8.742;2024-01-16T15:33:11;4.50;95.40
4596;DHT22;2310;49.978;8.742;2024-01-16T15:37:12;4.40;95.40
4596;DHT22;2310;49.978;8.742;2024-01-16T15:41:14;4.40;96.70
4596;DHT22;2310;49.978;8.742;2024-01-16T15:45:15;4.50;96.30
4596;DHT22;2310;49.978;8.742;2024-01-16T15:49:17;4.40;97.30
4596;DHT22;2310;49.978;8.742;2024-01-16T15:53:18;4.30;98.70
4596;DHT22;2310;49.978;8.742;2024-01-16T15:57:20;4.10;98.10
4596;DHT22;2310;49.978;8.742;2024-01-16T16:01:21;4.10;99.90
4596;DHT22;2310;49.978;8.742;2024-01-16T16:05:23;4.00;99.90
4596;DHT22;2310;49.978;8.742;2024-01-16T16:09:26;3.90;99.90
4596;DHT22;2310;49.978;8.742;2024-01-16T16:13:29;3.90;99.90
4596;DHT22;2310;49.978;8.742;2024-01-16T16:17:32;3.80;99.90
4596;DHT22;2310;49.978;8.742;2024-01-16T16:21:34;3.70;99.90
4596;DHT22;2310;49.978;8.742;2024-01-16T16:25:40;3.50;99.90
4596;DHT22;2310;49.978;8.742;2024-01-16T16:29:40;3.40;99.90
4596;DHT22;2310;49.978;8.742;2024-01-16T16:33:42;3.40;99.90
4596;DHT22;2310;49.978;8.742;2024-01-16T16:37:43;3.30;99.90
4596;DHT22;2310;49.978;8.742;2024-01-16T16:41:45;3.30;99.90
4596;DHT22;2310;49.978;8.742;2024-01-16T16:45:47;3.40;99.90
4596;DHT22;2310;49.978;8.742;2024-01-16T16:49:50;3.30;99.90
4596;DHT22;2310;49.978;8.742;2024-01-16T16:53:51;3.20;99.90
4596;DHT22;2310;49.978;8.742;2024-01-16T16:57:53;3.10;99.90
4596;DHT22;2310;49.978;8.742;2024-01-16T17:01:57;3.00;99.90
4596;DHT22;2310;49.978;8.742;2024-01-16T17:06:00;3.00;99.90
4596;DHT22;2310;49.978;8.742;2024-01-16T17:10:01;2.90;99.90
4596;DHT22;2310;49.978;8.742;2024-01-16T17:14:03;2.90;99.90
4596;DHT22;2310;49.978;8.742;2024-01-16T17:18:05;2.80;99.90
4596;DHT22;2310;49.978;8.742;2024-01-16T17:22:08;2.80;99.90
4596;DHT22;2310;49.978;8.742;2024-01-16T17:26:09;2.90;99.90
4596;DHT22;2310;49.978;8.742;2024-01-16T17:30:11;2.90;99.90
4596;DHT22;2310;49.978;8.742;2024-01-16T17:34:12;2.80;99.90
4596;DHT22;2310;49.978;8.742;2024-01-16T17:38:14;2.70;99.90
4596;DHT22;2310;49.978;8.742;2024-01-16T17:42:16;2.60;99.90
4596;DHT22;2310;49.978;8.742;2024-01-16T17:46:17;2.50;99.90
4596;DHT22;2310;49.978;8.742;2024-01-16T17:50:21;2.40;99.90
4596;DHT22;2310;49.978;8.742;2024-01-16T17:54:22;2.30;99.90
4596;DHT22;2310;49.978;8.742;2024-01-16T17:58:23;2.30;99.90
4596;DHT22;2310;49.978;8.742;2024-01-16T18:02:26;2.30;99.90
4596;DHT22;2310;49.978;8.742;2024-01-16T18:06:28;2.20;99.90
4596;DHT22;2310;49.978;8.742;2024-01-16T18:10:30;2.20;99.90
4596;DHT22;2310;49.978;8.742;2024-01-16T18:14:31;2.10;99.90
4596;DHT22;2310;49.978;8.742;2024-01-16T18:18:33;2.10;99.90
4596;DHT22;2310;49.978;8.742;2024-01-16T18:22:34;2.00;99.90
4596;DHT22;2310;49.978;8.742;2024-01-16T18:26:36;2.00;99.90
4596;DHT22;2310;49.978;8.742;2024-01-16T18:30:39;2.00;99.90
4596;DHT22;2310;49.978;8.742;2024-01-16T18:34:40;1.90;99.90
4596;DHT22;2310;49.978;8.742;2024-01-16T18:38:44;1.90;99.90
4596;DHT22;2310;49.978;8.742;2024-01-16T18:42:47;1.80;99.90
4596;DHT22;2310;49.978;8.742;2024-01-16T18:46:50;1.80;99.90
4596;DHT22;2310;49.978;8.742;2024-01-16T18:50:51;1.80;99.90
4596;DHT22;2310;49.978;8.742;2024-01-16T18:54:54;1.60;99.90
4596;DHT22;2310;49.978;8.742;2024-01-16T18:58:56;1.60;99.90
4596;DHT22;2310;49.978;8.742;2024-01-16T19:02:57;1.70;99.90
4596;DHT22;2310;49.978;8.742;2024-01-16T19:06:59;1.60;99.90
4596;DHT22;2310;49.978;8.742;2024-01-16T19:11:01;1.50;99.90
4596;DHT22;2310;49.978;8.742;2024-01-16T19:15:03;1.50;99.90
4596;DHT22;2310;49.978;8.742;2024-01-16T19:19:05;1.60;99.90
4596;DHT22;2310;49.978;8.742;2024-01-16T19:23:08;1.60;99.90
4596;DHT22;2310;49.978;8.742;2024-01-16T19:27:11;1.50;99.90
4596;DHT22;2310;49.978;8.742;2024-01-16T19:31:12;1.40;99.90
4596;DHT22;2310;49.978;8.742;2024-01-16T19:35:14;1.40;99.90
4596;DHT22;2310;49.978;8.742;2024-01-16T19:39:15;1.40;99.90
4596;DHT22;2310;49.978;8.742;2024-01-16T19:43:17;1.40;99.90
4596;DHT22;2310;49.978;8.742;2024-01-16T19:47:18;1.30;99.90
4596;DHT22;2310;49.978;8.742;2024-01-16T19:51:20;1.20;99.90
4596;DHT22;2310;49.978;8.742;2024-01-16T19:55:21;1.20;99.90
4596;DHT22;2310;49.978;8.742;2024-01-16T19:59:24;1.10;99.90
4596;DHT22;2310;49.978;8.742;2024-01-16T20:03:26;1.10;99.90
4596;DHT22;2310;49.978;8.742;2024-01-16T20:07:28;1.10;99.90
4596;DHT22;2310;49.978;8.742;2024-01-16T20:11:31;1.20;99.90
4596;DHT22;2310;49.978;8.742;2024-01-16T20:15:33;1.10;99.90
4596;DHT22;2310;49.978;8.742;2024-01-16T20:19:35;0.90;99.90
4596;DHT22;2310;49.978;8.742;2024-01-16T20:23:36;0.90;99.90
4596;DHT22;2310;49.978;8.742;2024-01-16T20:27:41;1.00;99.90
4596;DHT22;2310;49.978;8.742;2024-01-16T20:31:43;1.00;99.90
4596;DHT22;2310;49.978;8.742;2024-01-16T20:35:46;0.90;99.90
4596;DHT22;2310;49.978;8.742;2024-01-16T20:39:47;1.00;99.90
4596;DHT22;2310;49.978;8.742;2024-01-16T20:43:49;0.90;99.90
4596;DHT22;2310;49.978;8.742;2024-01-16T20:47:50;0.80;99.90
4596;DHT22;2310;49.978;8.742;2024-01-16T20:51:52;0.70;99.90
4596;DHT22;2310;49.978;8.742;2024-01-16T20:55:55;0.70;99.90
4596;DHT22;2310;49.978;8.742;2024-01-16T20:59:57;0.80;99.90
4596;DHT22;2310;49.978;8.742;2024-01-16T21:03:58;0.70;99.90
4596;DHT22;2310;49.978;8.742;2024-01-16T21:08:00;0.70;99.90
4596;DHT22;2310;49.978;8.742;2024-01-16T21:12:01;0.60;99.90
4596;DHT22;2310;49.978;8.742;2024-01-16T21:16:05;0.70;99.90
4596;DHT22;2310;49.978;8.742;2024-01-16T21:20:07;0.60;99.90
4596;DHT22;2310;49.978;8.742;2024-01-16T21:24:09;0.60;99.90
4596;DHT22;2310;49.978;8.742;2024-01-16T21:28:13;0.60;99.90
4596;DHT22;2310;49.978;8.742;2024-01-16T21:32:14;0.60;99.90
4596;DHT22;2310;49.978;8.742;2024-01-16T21:36:16;0.60;99.90
4596;DHT22;2310;49.978;8.742;2024-01-16T21:40:18;0.50;99.90
4596;DHT22;2310;49.978;8.742;2024-01-16T21:44:19;0.30;99.90
4596;DHT22;2310;49.978;8.742;2024-01-16T21:48:20;0.30;99.90
4596;DHT22;2310;49.978;8.742;2024-01-16T21:52:22;0.30;99.90
4596;DHT22;2310;49.978;8.742;2024-01-16T21:56:24;0.40;99.90
4596;DHT22;2310;49.978;8.742;2024-01-16T22:00:26;0.40;99.90
4596;DHT22;2310;49.978;8.742;2024-01-16T22:04:28;0.40;99.90
4596;DHT22;2310;49.978;8.742;2024-01-16T22:08:30;0.40;99.90
4596;DHT22;2310;49.978;8.742;2024-01-16T22:12:32;0.30;99.90
4596;DHT22;2310;49.978;8.742;2024-01-16T22:16:34;0.30;99.90
4596;DHT22;2310;49.978;8.742;2024-01-16T22:20:35;0.30;99.90
4596;DHT22;2310;49.978;8.742;2024-01-16T22:24:37;0.30;99.90
4596;DHT22;2310;49.978;8.742;2024-01-16T22:28:38;0.30;99.90
4596;DHT22;2310;49.978;8.742;2024-01-16T22:32:41;0.20;99.90
4596;DHT22;2310;49.978;8.742;2024-01-16T22:36:43;0.20;99.90
4596;DHT22;2310;49.978;8.742;2024-01-16T22:40:45;0.30;99.90
4596;DHT22;2310;49.978;8.742;2024-01-16T22:44:48;0.20;99.90
4596;DHT22;2310;49.978;8.742;2024-01-16T22:48:49;0.20;99.90
4596;DHT22;2310;49.978;8.742;2024-01-16T22:52:51;0.10;99.90
4596;DHT22;2310;49.978;8.742;2024-01-16T22:56:52;0.10;99.90
4596;DHT22;2310;49.978;8.742;2024-01-16T23:00:54;0.00;99.90
4596;DHT22;2310;49.978;8.742;2024-01-16T23:04:55;0.00;99.90
4596;DHT22;2310;49.978;8.742;2024-01-16T23:08:58;0.00;99.90
4596;DHT22;2310;49.978;8.742;2024-01-16T23:13:01;0.10;99.90
4596;DHT22;2310;49.978;8.742;2024-01-16T23:17:03;0.00;99.90
4596;DHT22;2310;49.978;8.742;2024-01-16T23:21:04;0.00;99.90
4596;DHT22;2310;49.978;8.742;2024-01-16T23:25:07;-0.10;99.90
4596;DHT22;2310;49.978;8.742;2024-01-16T23:29:10;0.00;99.90
4596;DHT22;2310;49.978;8.742;2024-01-16T23:33:12;0.00;99.90
4596;DHT22;2310;49.978;8.742;2024-01-16T23:37:13;0.00;99.90
4596;DHT22;2310;49.978;8.742;2024-01-16T23:41:17;-0.30;99.90
4596;DHT22;2310;49.978;8.742;2024-01-16T23:45:19;-0.50;99.90
4596;DHT22;2310;49.978;8.742;2024-01-16T23:49:22;-0.40;99.90
4596;DHT22;2310;49.978;8.742;2024-01-16T23:53:23;-0.40;99.90
4596;DHT22;2310;49.978;8.742;2024-01-16T23:57:26;-0.30;99.90
